createdAt,value
2022-09-16T00:01:12.527Z,11.08
2022-09-16T00:06:21.509Z,11.39
2022-09-16T00:11:25.715Z,11.31
2022-09-16T00:16:29.817Z,11.24
2022-09-16T00:21:34.043Z,11.25
2022-09-16T00:26:38.617Z,11.44
2022-09-16T00:31:41.412Z,11.40
2022-09-16T00:36:45.600Z,11.60
2022-09-16T00:41:48.667Z,11.24
2022-09-16T00:46:52.019Z,11.34
2022-09-16T00:52:01.858Z,11.53
2022-09-16T00:57:06.556Z,11.39
2022-09-16T01:02:12.886Z,10.98
2022-09-16T01:07:19.490Z,11.03
2022-09-16T01:12:22.301Z,11.25
2022-09-16T01:17:29.139Z,11.20
2022-09-16T01:22:47.146Z,11.05
2022-09-16T01:28:14.697Z,10.99
2022-09-16T01:33:29.215Z,11.02
2022-09-16T01:38:51.816Z,11.25
2022-09-16T01:44:01.903Z,10.82
2022-09-16T01:49:17.941Z,11.18
2022-09-16T01:54:28.430Z,11.12
2022-09-16T01:59:39.467Z,10.97
2022-09-16T02:04:48.542Z,10.57
2022-09-16T02:09:56.981Z,10.56
2022-09-16T02:15:06.532Z,10.43
2022-09-16T02:20:14.417Z,10.41
2022-09-16T02:25:20.451Z,10.33
2022-09-16T02:30:24.229Z,10.20
2022-09-16T02:35:31.570Z,10.04
2022-09-16T02:40:38.912Z,10.51
2022-09-16T02:45:49.721Z,10.16
2022-09-16T02:51:03.055Z,10.40
2022-09-16T02:56:14.542Z,10.37
2022-09-16T03:01:19.024Z,10.29
2022-09-16T03:06:25.065Z,10.39
2022-09-16T03:11:42.412Z,10.70
2022-09-16T03:16:55.206Z,10.49
2022-09-16T03:22:03.695Z,10.49
2022-09-16T03:27:11.366Z,10.33
2022-09-16T03:32:22.211Z,10.54
2022-09-16T03:37:32.088Z,10.52
2022-09-16T03:42:35.117Z,10.74
2022-09-16T03:47:37.961Z,10.42
2022-09-16T03:52:42.103Z,10.71
2022-09-16T03:57:44.941Z,10.36
2022-09-16T04:02:47.813Z,10.50
2022-09-16T04:07:52.040Z,10.69
2022-09-16T04:12:58.476Z,10.49
2022-09-16T04:18:01.430Z,10.49
2022-09-16T04:23:05.708Z,10.74
2022-09-16T04:28:08.895Z,10.69
2022-09-16T04:33:11.645Z,10.57
2022-09-16T04:38:15.587Z,10.27
2022-09-16T04:43:18.322Z,10.54
2022-09-16T04:48:20.859Z,10.37
2022-09-16T04:53:25.026Z,10.20
2022-09-16T04:58:30.045Z,10.53
2022-09-16T05:03:33.502Z,10.04
2022-09-16T05:08:37.727Z,10.20
2022-09-16T05:13:41.072Z,10.20
2022-09-16T05:18:45.276Z,10.62
2022-09-16T05:23:49.643Z,10.68
2022-09-16T05:28:52.752Z,10.50
2022-09-16T05:33:56.889Z,10.62
2022-09-16T05:44:24.045Z,10.38
2022-09-16T05:49:26.875Z,10.50
2022-09-16T05:54:31.492Z,10.55
2022-09-16T05:59:34.199Z,10.52
2022-09-16T06:04:37.033Z,10.38
2022-09-16T06:09:41.697Z,10.73
2022-09-16T06:14:44.376Z,10.46
2022-09-16T06:19:46.905Z,10.70
2022-09-16T06:24:52.324Z,10.89
2022-09-16T06:29:55.044Z,10.29
2022-09-16T06:34:57.641Z,10.10
2022-09-16T06:40:01.776Z,10.28
2022-09-16T06:45:05.195Z,10.30
2022-09-16T06:50:08.339Z,10.52
2022-09-16T06:55:12.674Z,10.64
2022-09-16T07:00:15.951Z,10.60
2022-09-16T07:05:18.772Z,10.59
2022-09-16T07:10:24.114Z,10.78
2022-09-16T07:15:26.841Z,11.13
2022-09-16T07:20:29.800Z,11.59
2022-09-16T07:25:35.969Z,11.73
2022-09-16T07:30:38.830Z,11.86
2022-09-16T07:35:41.738Z,11.78
2022-09-16T07:40:45.761Z,11.66
2022-09-16T07:45:48.551Z,12.36
2022-09-16T07:50:56.147Z,11.85
2022-09-16T07:56:05.265Z,11.77
2022-09-16T08:01:08.826Z,12.15
2022-09-16T08:06:13.802Z,12.36
2022-09-16T08:11:17.956Z,13.44
2022-09-16T08:16:22.671Z,13.13
2022-09-16T08:21:27.293Z,13.76
2022-09-16T08:26:31.534Z,13.26
2022-09-16T08:31:34.418Z,13.07
2022-09-16T08:36:37.186Z,13.80
2022-09-16T08:41:57.600Z,13.37
2022-09-16T08:47:03.203Z,13.78
2022-09-16T08:52:13.217Z,14.14
2022-09-16T08:57:21.632Z,13.46
2022-09-16T09:02:38.576Z,14.46
2022-09-16T09:07:54.529Z,15.54
2022-09-16T09:13:10.195Z,15.23
2022-09-16T09:18:31.237Z,15.21
2022-09-16T09:23:54.994Z,14.64
2022-09-16T09:29:22.104Z,15.73
2022-09-16T09:34:41.699Z,15.25
2022-09-16T09:39:57.420Z,14.46
2022-09-16T09:45:05.719Z,15.55
2022-09-16T09:50:18.573Z,14.52
2022-09-16T09:55:24.753Z,14.67
2022-09-16T10:00:29.095Z,14.85
2022-09-16T10:05:32.766Z,15.35
2022-09-16T10:10:39.894Z,15.27
2022-09-16T10:15:44.651Z,14.10
2022-09-16T10:20:59.075Z,14.01
2022-09-16T10:26:08.430Z,15.91
2022-09-16T10:31:12.882Z,16.85
2022-09-16T10:36:20.789Z,15.91
2022-09-16T10:41:25.896Z,16.59
2022-09-16T10:46:30.974Z,17.23
2022-09-16T10:51:34.681Z,16.72
2022-09-16T10:56:49.244Z,16.72
2022-09-16T11:02:05.833Z,17.50
2022-09-16T11:07:24.720Z,15.99
2022-09-16T11:12:49.764Z,17.24
2022-09-16T11:18:08.781Z,16.82
2022-09-16T11:23:26.717Z,17.08
2022-09-16T11:29:10.190Z,15.12
2022-09-16T11:34:28.887Z,17.01
2022-09-16T11:39:47.687Z,17.13
2022-09-16T11:44:56.822Z,18.23
2022-09-16T11:50:13.324Z,16.08
2022-09-16T11:55:35.393Z,16.48
2022-09-16T12:00:41.221Z,16.84
2022-09-16T12:05:53.454Z,14.42
2022-09-16T12:11:01.331Z,12.22
2022-09-16T12:16:07.459Z,11.81
2022-09-16T12:21:16.525Z,10.72
2022-09-16T12:26:22.635Z,10.63
2022-09-16T12:31:32.442Z,12.72
2022-09-16T12:36:40.281Z,14.13
2022-09-16T12:42:02.914Z,15.21
2022-09-16T12:47:51.221Z,16.18
2022-09-16T12:53:15.354Z,16.68
2022-09-16T12:59:00.565Z,16.66
2022-09-16T13:04:15.173Z,17.99
2022-09-16T13:09:24.997Z,18.36
2022-09-16T13:14:32.120Z,19.53
2022-09-16T13:19:46.383Z,17.11
2022-09-16T13:24:55.927Z,19.53
2022-09-16T13:30:31.272Z,20.36
2022-09-16T13:35:40.906Z,19.89
2022-09-16T13:40:56.841Z,18.97
2022-09-16T13:46:08.622Z,18.42
2022-09-16T13:51:18.340Z,18.26
2022-09-16T13:56:48.873Z,17.41
2022-09-16T14:02:10.464Z,17.00
2022-09-16T14:07:27.323Z,17.06
2022-09-16T14:12:42.751Z,16.69
2022-09-16T14:17:51.397Z,16.61
2022-09-16T14:23:05.874Z,18.19
2022-09-16T14:28:18.621Z,17.35
2022-09-16T14:33:25.701Z,16.82
2022-09-16T14:38:45.640Z,16.42
2022-09-16T14:43:51.420Z,16.10
2022-09-16T14:48:54.380Z,16.00
2022-09-16T14:54:12.230Z,15.01
2022-09-16T14:59:17.831Z,13.77
2022-09-16T15:04:26.324Z,12.68
2022-09-16T15:09:38.609Z,11.59
2022-09-16T15:14:42.779Z,12.41
2022-09-16T15:19:52.296Z,12.06
2022-09-16T15:24:58.459Z,12.08
2022-09-16T15:30:05.637Z,13.91
2022-09-16T15:35:23.489Z,13.48
2022-09-16T15:40:35.680Z,14.88
2022-09-16T15:45:40.468Z,15.01
2022-09-16T15:50:47.688Z,14.96
2022-09-16T15:56:01.366Z,15.25
2022-09-16T16:01:11.540Z,14.97
2022-09-16T16:06:14.694Z,15.14
2022-09-16T16:11:19.104Z,14.95
2022-09-16T16:16:23.454Z,14.05
2022-09-16T16:21:26.252Z,14.06
2022-09-16T16:26:29.368Z,13.96
2022-09-16T16:31:34.959Z,14.41
2022-09-16T16:36:37.909Z,15.01
2022-09-16T16:41:40.745Z,14.43
2022-09-16T16:46:44.995Z,13.46
2022-09-16T16:51:49.893Z,13.66
2022-09-16T16:56:52.847Z,13.74
2022-09-16T17:01:58.317Z,13.57
2022-09-16T17:07:24.763Z,11.60
2022-09-16T17:12:24.836Z,11.40
2022-09-16T17:17:31.674Z,11.32
2022-09-16T17:22:34.826Z,10.88
2022-09-16T17:27:37.570Z,10.92
2022-09-16T17:32:41.653Z,11.34
2022-09-16T17:37:44.497Z,11.11
2022-09-16T17:42:51.568Z,11.05
2022-09-16T17:47:57.719Z,11.43
2022-09-16T17:53:00.577Z,11.27
2022-09-16T17:58:03.583Z,11.10
2022-09-16T18:03:08.126Z,11.73
2022-09-16T18:08:11.048Z,11.12
2022-09-16T18:13:13.871Z,11.37
2022-09-16T18:18:19.183Z,11.17
2022-09-16T18:23:22.236Z,11.42
2022-09-16T18:28:25.260Z,11.42
2022-09-16T18:33:29.671Z,11.86
2022-09-16T18:38:33.945Z,11.63
2022-09-16T18:43:39.461Z,11.86
2022-09-16T18:48:45.382Z,11.80
2022-09-16T18:53:49.694Z,11.78
2022-09-16T18:59:17.107Z,11.85
2022-09-16T19:04:19.224Z,12.10
2022-09-16T19:09:23.971Z,10.94
2022-09-16T19:14:27.429Z,10.58
2022-09-16T19:19:31.821Z,10.51
2022-09-16T19:24:35.097Z,10.36
2022-09-16T19:29:37.901Z,10.23
2022-09-16T19:34:42.161Z,9.87
2022-09-16T19:39:44.936Z,9.54
2022-09-16T19:44:47.547Z,9.36
2022-09-16T19:49:51.773Z,9.33
2022-09-16T19:54:54.586Z,9.28
2022-09-16T19:59:57.194Z,9.29
2022-09-16T20:05:03.026Z,9.26
2022-09-16T20:10:09.075Z,9.28
2022-09-16T20:15:11.994Z,9.25
2022-09-16T20:20:16.413Z,9.16
2022-09-16T20:25:23.537Z,9.21
2022-09-16T20:30:26.572Z,9.00
2022-09-16T20:35:30.515Z,9.24
2022-09-16T20:40:33.463Z,9.36
2022-09-16T20:45:37.158Z,9.03
2022-09-16T20:50:41.319Z,8.98
2022-09-16T20:55:44.046Z,8.90
2022-09-16T21:00:48.007Z,9.07
2022-09-16T21:05:52.128Z,9.18
2022-09-16T21:11:00.349Z,9.11
2022-09-16T21:16:03.760Z,9.13
2022-09-16T21:21:09.746Z,8.94
2022-09-16T21:26:14.179Z,8.98
2022-09-16T21:31:18.420Z,8.63
2022-09-16T21:36:24.369Z,9.25
2022-09-16T21:41:27.627Z,9.12
2022-09-16T21:46:32.767Z,9.16
2022-09-16T21:51:38.759Z,9.17
2022-09-16T21:56:42.404Z,9.23
2022-09-16T22:01:45.216Z,8.92
2022-09-16T22:06:49.808Z,9.22
2022-09-16T22:11:52.607Z,9.12
2022-09-16T22:16:55.175Z,9.12
2022-09-16T22:21:59.330Z,8.94
2022-09-16T22:27:02.100Z,9.16
2022-09-16T22:32:04.705Z,9.02
2022-09-16T22:37:09.262Z,8.91
2022-09-16T22:42:12.029Z,9.20
2022-09-16T22:47:14.603Z,8.73
2022-09-16T22:52:18.707Z,9.28
2022-09-16T22:57:21.477Z,9.42
2022-09-16T23:02:24.150Z,9.18
2022-09-16T23:07:29.793Z,9.16
2022-09-16T23:12:32.629Z,9.33
2022-09-16T23:17:35.408Z,9.29
2022-09-16T23:22:40.010Z,9.19
2022-09-16T23:27:42.858Z,9.40
2022-09-16T23:32:45.969Z,9.21
2022-09-16T23:37:50.080Z,9.46
2022-09-16T23:42:52.846Z,9.56
2022-09-16T23:47:55.437Z,9.37
2022-09-16T23:52:59.932Z,9.23
2022-09-16T23:58:02.748Z,9.54
